Time;durP1;ratioP1;P1;durP2;ratioP2;P2;SDS_P1;SDS_P2;PMS_P1;PMS_P2;Temp;Humidity;BMP_temperature;BMP_pressure;BME280_temperature;BME280_humidity;BME280_pressure;Samples;Min_cycle;Max_cycle;Signal;HPM_P1;HPM_P2
2022/07/09 00:02:14;;;;;;;2.17;1.40;;;23.00;63.00;;;;;;5029076;28;20084;-64
2022/07/09 00:04:40;;;;;;;3.13;1.70;;;23.00;62.90;;;;;;5014190;28;20122;-62
2022/07/09 00:07:05;;;;;;;2.15;1.45;;;23.10;63.00;;;;;;5031894;28;20045;-62
2022/07/09 00:09:31;;;;;;;3.50;1.90;;;23.00;63.00;;;;;;5028805;28;20534;-62
2022/07/09 00:11:57;;;;;;;2.80;1.63;;;23.00;62.90;;;;;;5027478;28;20128;-62
2022/07/09 00:14:22;;;;;;;2.75;1.70;;;23.00;62.90;;;;;;5028194;28;20130;-62
2022/07/09 00:16:48;;;;;;;2.10;1.60;;;23.00;62.90;;;;;;5029099;28;20037;-62
2022/07/09 00:19:14;;;;;;;3.97;2.00;;;23.00;62.80;;;;;;5029103;28;20045;-63
2022/07/09 00:21:40;;;;;;;2.20;1.70;;;23.00;62.90;;;;;;5029889;28;20141;-63
2022/07/09 00:24:05;;;;;;;4.43;1.95;;;23.00;62.80;;;;;;5027735;28;20529;-62
2022/07/09 00:26:31;;;;;;;2.47;1.50;;;23.00;62.80;;;;;;5015326;28;20619;-62
2022/07/09 00:28:57;;;;;;;2.17;1.50;;;23.00;62.80;;;;;;5029419;28;20037;-62
2022/07/09 00:31:23;;;;;;;3.63;1.77;;;23.00;62.70;;;;;;5009042;28;20045;-62
2022/07/09 00:33:48;;;;;;;2.63;1.30;;;23.00;62.70;;;;;;5032615;28;20044;-62
2022/07/09 00:36:14;;;;;;;3.25;1.58;;;23.00;62.70;;;;;;5028623;28;20116;-62
2022/07/09 00:38:40;;;;;;;2.88;1.58;;;23.00;62.70;;;;;;5028821;28;20216;-62
2022/07/09 00:41:06;;;;;;;2.17;1.63;;;23.00;62.70;;;;;;5025640;28;20041;-63
2022/07/09 00:43:31;;;;;;;2.85;1.55;;;23.00;62.70;;;;;;5027966;28;20083;-63
2022/07/09 00:45:57;;;;;;;1.65;1.50;;;23.00;62.60;;;;;;5008452;28;20049;-62
2022/07/09 00:48:23;;;;;;;3.72;1.75;;;23.00;62.60;;;;;;5027828;28;20108;-62
2022/07/09 00:50:49;;;;;;;3.58;1.70;;;23.00;62.60;;;;;;5027824;28;20069;-63
2022/07/09 00:53:21;;;;;;;3.20;1.45;;;23.00;62.60;;;;;;5031398;28;20045;-62
2022/07/09 00:55:48;;;;;;;4.15;1.33;;;23.00;62.60;;;;;;5028918;28;20489;-62
2022/07/09 00:58:19;;;;;;;2.38;1.60;;;23.00;62.50;;;;;;5030886;28;20393;-62
2022/07/09 01:00:45;;;;;;;2.78;1.50;;;23.00;62.60;;;;;;5032004;28;20069;-64
2022/07/09 01:03:11;;;;;;;2.63;1.50;;;23.00;62.50;;;;;;5019670;28;20550;-62
2022/07/09 01:05:37;;;;;;;2.22;1.50;;;23.00;62.50;;;;;;5037120;28;20172;-62
2022/07/09 01:08:07;;;;;;;3.25;1.80;;;23.00;62.50;;;;;;5035304;28;20506;-62
2022/07/09 01:10:34;;;;;;;2.70;1.73;;;23.00;62.50;;;;;;5035387;28;20120;-62
2022/07/09 01:13:00;;;;;;;1.88;1.30;;;23.00;62.50;;;;;;5019418;28;20045;-62
2022/07/09 01:15:26;;;;;;;2.90;1.60;;;23.00;63.20;;;;;;5036420;28;20148;-61
2022/07/09 01:17:52;;;;;;;2.25;1.65;;;23.00;62.40;;;;;;5035616;28;20063;-62
2022/07/09 01:20:23;;;;;;;1.88;1.42;;;23.00;62.50;;;;;;5032701;28;20095;-62
2022/07/09 01:22:48;;;;;;;;;;;23.00;62.50;;;;;;5017313;28;20108;-62
2022/07/09 01:25:16;;;;;;;1.75;1.50;;;23.00;62.40;;;;;;5033562;28;20019;-62
2022/07/09 01:27:42;;;;;;;3.25;1.55;;;22.90;62.50;;;;;;5037059;28;20067;-62
2022/07/09 01:30:08;;;;;;;2.83;1.70;;;22.90;62.50;;;;;;5018604;28;20045;-62
2022/07/09 01:32:34;;;;;;;3.33;1.60;;;23.00;62.50;;;;;;5033492;28;20041;-62
2022/07/09 01:35:00;;;;;;;2.22;1.50;;;23.00;62.50;;;;;;5036003;28;20537;-63
2022/07/09 01:37:25;;;;;;;2.50;1.60;;;23.00;62.40;;;;;;5010895;28;20040;-61
2022/07/09 01:39:51;;;;;;;3.17;1.48;;;23.00;62.40;;;;;;5033599;28;20044;-63
2022/07/09 01:42:17;;;;;;;4.03;1.67;;;23.00;62.30;;;;;;5014067;28;20045;-63
2022/07/09 01:44:43;;;;;;;1.63;1.40;;;23.00;62.30;;;;;;5035012;28;20500;-62
2022/07/09 01:47:09;;;;;;;2.35;1.77;;;23.00;62.30;;;;;;5035443;28;20061;-62
2022/07/09 01:49:35;;;;;;;2.13;1.55;;;23.00;62.30;;;;;;5018685;28;20071;-64
2022/07/09 01:52:00;;;;;;;1.90;1.58;;;22.90;62.30;;;;;;5032913;28;20682;-64
2022/07/09 01:54:26;;;;;;;2.30;1.40;;;22.90;62.20;;;;;;5036281;28;20047;-63
2022/07/09 01:56:52;;;;;;;2.15;1.90;;;23.00;62.30;;;;;;5016269;28;20155;-62
2022/07/09 01:59:17;;;;;;;2.30;1.70;;;22.90;62.20;;;;;;5033394;28;21664;-63
2022/07/09 02:01:43;;;;;;;2.38;1.30;;;22.90;62.20;;;;;;5016573;28;20531;-62
2022/07/09 02:04:08;;;;;;;1.88;1.40;;;22.90;62.20;;;;;;5033874;28;20087;-63
2022/07/09 02:06:34;;;;;;;2.70;1.50;;;22.90;62.20;;;;;;5029781;28;20045;-62
2022/07/09 02:09:00;;;;;;;2.33;1.85;;;22.90;62.20;;;;;;5011742;28;20048;-61
2022/07/09 02:11:26;;;;;;;1.42;1.33;;;22.90;62.20;;;;;;5030884;28;20049;-62
2022/07/09 02:13:51;;;;;;;2.42;1.60;;;22.90;62.20;;;;;;5027795;28;20041;-63
2022/07/09 02:16:17;;;;;;;1.48;1.30;;;22.90;62.20;;;;;;5027688;28;20057;-61
2022/07/09 02:18:43;;;;;;;2.08;1.38;;;22.90;62.20;;;;;;5029431;28;20381;-62
2022/07/09 02:21:08;;;;;;;1.65;1.55;;;22.90;62.10;;;;;;5029491;28;20038;-62
2022/07/09 02:23:34;;;;;;;3.67;1.90;;;22.90;62.10;;;;;;5030356;28;20702;-63
2022/07/09 02:26:00;;;;;;;2.42;1.85;;;22.90;62.10;;;;;;5031260;28;20029;-62
2022/07/09 02:28:25;;;;;;;3.08;1.60;;;22.90;62.10;;;;;;5012725;28;20470;-63
2022/07/09 02:30:51;;;;;;;3.25;1.60;;;22.90;62.10;;;;;;5032136;28;20404;-62
2022/07/09 02:33:17;;;;;;;2.78;1.50;;;22.90;62.10;;;;;;5028605;28;20037;-63
2022/07/09 02:35:42;;;;;;;1.92;1.50;;;22.90;62.10;;;;;;5012416;28;20037;-62
2022/07/09 02:38:08;;;;;;;3.03;1.70;;;22.90;62.00;;;;;;5012111;28;20951;-62
2022/07/09 02:40:34;;;;;;;2.38;1.80;;;22.90;62.10;;;;;;5031581;28;20037;-63
2022/07/09 02:43:00;;;;;;;2.25;1.55;;;22.90;62.00;;;;;;5012349;28;20033;-63
2022/07/09 02:45:25;;;;;;;2.47;1.63;;;22.90;62.00;;;;;;5025782;28;20037;-62
2022/07/09 02:47:51;;;;;;;2.53;1.73;;;22.90;62.00;;;;;;5030628;28;20469;-62
2022/07/09 02:50:17;;;;;;;1.45;1.33;;;22.90;62.00;;;;;;5010547;28;20732;-63
2022/07/09 02:52:42;;;;;;;2.92;1.20;;;22.90;62.00;;;;;;5033504;28;20124;-62
2022/07/09 02:55:08;;;;;;;2.28;1.63;;;22.90;62.00;;;;;;5031654;28;20049;-62
2022/07/09 02:57:34;;;;;;;1.55;1.45;;;22.90;62.00;;;;;;5028496;28;20405;-62
2022/07/09 02:59:59;;;;;;;1.92;1.30;;;22.90;62.00;;;;;;5030424;28;20482;-62
2022/07/09 03:02:25;;;;;;;1.95;1.30;;;22.90;62.00;;;;;;5011505;28;20045;-63
2022/07/09 03:04:51;;;;;;;2.67;1.50;;;22.90;62.00;;;;;;5031009;28;20079;-62
2022/07/09 03:07:17;;;;;;;1.42;1.33;;;22.90;62.00;;;;;;5030867;28;20561;-63
2022/07/09 03:09:43;;;;;;;2.42;1.65;;;22.90;61.90;;;;;;5030266;28;20040;-62
2022/07/09 03:12:09;;;;;;;2.78;1.90;;;22.90;61.90;;;;;;5027445;28;20120;-63
2022/07/09 03:14:35;;;;;;;1.83;1.42;;;22.90;62.00;;;;;;5028848;28;20091;-63
2022/07/09 03:17:01;;;;;;;1.60;1.50;;;22.90;61.90;;;;;;5030686;28;20068;-61
2022/07/09 03:19:26;;;;;;;2.00;1.38;;;22.90;61.90;;;;;;5031663;28;20584;-63
2022/07/09 03:21:52;;;;;;;2.05;1.58;;;22.90;61.90;;;;;;5029075;28;20037;-61
2022/07/09 03:24:17;;;;;;;2.75;1.67;;;22.90;61.90;;;;;;5027601;28;20083;-64
2022/07/09 03:26:43;;;;;;;1.77;1.30;;;22.90;61.90;;;;;;5027290;28;20051;-62
2022/07/09 03:29:09;;;;;;;2.05;1.48;;;22.90;61.90;;;;;;5030259;28;20041;-62
2022/07/09 03:31:35;;;;;;;1.55;1.20;;;22.90;61.90;;;;;;5028514;28;20052;-63
2022/07/09 03:34:00;;;;;;;1.50;1.40;;;22.90;61.90;;;;;;5013551;28;20052;-62
2022/07/09 03:36:26;;;;;;;1.85;1.35;;;22.90;61.90;;;;;;5012496;28;20051;-63
2022/07/09 03:38:52;;;;;;;1.95;1.30;;;22.90;61.90;;;;;;5011030;28;20045;-62
2022/07/09 03:41:17;;;;;;;2.22;1.35;;;22.90;61.90;;;;;;5029773;28;20520;-63
2022/07/09 03:43:43;;;;;;;1.77;1.20;;;22.90;61.80;;;;;;5029527;28;20033;-62
2022/07/09 03:46:09;;;;;;;1.52;1.20;;;22.90;61.80;;;;;;5011004;28;20044;-63
2022/07/09 03:48:35;;;;;;;1.35;1.20;;;22.90;61.80;;;;;;5029931;28;20454;-62
2022/07/09 03:51:00;;;;;;;1.83;1.50;;;22.90;61.80;;;;;;5029784;28;20379;-63
2022/07/09 03:53:26;;;;;;;1.75;1.40;;;22.90;61.80;;;;;;5028870;28;20041;-63
2022/07/09 03:55:51;;;;;;;1.83;1.40;;;22.90;61.80;;;;;;5029843;28;20072;-62
2022/07/09 03:58:17;;;;;;;1.52;1.30;;;22.90;61.70;;;;;;5030231;28;20107;-63
2022/07/09 04:00:43;;;;;;;1.95;1.52;;;22.90;61.70;;;;;;5027644;28;20041;-64
2022/07/09 04:03:08;;;;;;;2.05;1.35;;;22.90;61.70;;;;;;5030136;28;20511;-62
2022/07/09 04:05:34;;;;;;;1.98;1.38;;;22.90;61.70;;;;;;5027777;28;20355;-63
2022/07/09 04:08:00;;;;;;;2.75;1.77;;;22.80;61.60;;;;;;5029810;28;20482;-65
2022/07/09 04:10:25;;;;;;;2.78;1.50;;;22.80;61.70;;;;;;5012343;28;20044;-65
2022/07/09 04:12:51;;;;;;;1.48;1.20;;;22.80;61.60;;;;;;5026014;28;20927;-62
2022/07/09 04:15:16;;;;;;;1.30;1.20;;;22.80;61.60;;;;;;5028009;28;20049;-62
2022/07/09 04:17:42;;;;;;;2.15;1.33;;;22.80;61.60;;;;;;5028538;28;20037;-63
2022/07/09 04:20:09;;;;;;;1.50;1.40;;;22.80;61.60;;;;;;5028054;28;20674;-62
2022/07/09 04:22:34;;;;;;;2.50;1.20;;;22.80;61.60;;;;;;5029113;28;20037;-62
2022/07/09 04:25:00;;;;;;;2.00;1.55;;;22.80;61.60;;;;;;5030638;28;20035;-63
2022/07/09 04:27:26;;;;;;;1.70;1.30;;;22.80;61.60;;;;;;5026244;28;20048;-62
2022/07/09 04:29:51;;;;;;;3.63;1.67;;;22.80;61.60;;;;;;5029710;28;20029;-63
2022/07/09 04:32:17;;;;;;;1.40;1.20;;;22.80;61.50;;;;;;5025551;28;20029;-63
2022/07/09 04:34:42;;;;;;;1.50;1.40;;;22.80;61.50;;;;;;5028770;28;20033;-62
2022/07/09 04:37:08;;;;;;;1.30;1.13;;;22.80;61.50;;;;;;5033257;28;20088;-63
2022/07/09 04:39:34;;;;;;;2.13;1.48;;;22.80;61.50;;;;;;5028498;28;20079;-63
2022/07/09 04:41:59;;;;;;;2.15;1.35;;;22.80;61.60;;;;;;5007814;28;20041;-63
2022/07/09 04:44:25;;;;;;;2.50;1.42;;;22.80;61.50;;;;;;5028704;28;20072;-62
2022/07/09 04:46:51;;;;;;;1.73;1.40;;;22.80;61.50;;;;;;5009243;28;20577;-62
2022/07/09 04:49:16;;;;;;;1.63;0.98;;;22.80;61.50;;;;;;5029095;28;20046;-63
2022/07/09 04:51:42;;;;;;;2.22;1.35;;;22.80;61.60;;;;;;5026077;28;20041;-63
2022/07/09 04:54:08;;;;;;;2.35;1.35;;;22.80;61.50;;;;;;5005982;28;20047;-63
2022/07/09 04:56:33;;;;;;;2.72;1.40;;;22.80;61.50;;;;;;5024156;28;20047;-63
2022/07/09 04:59:02;;;;;;;2.67;1.88;;;22.80;61.40;;;;;;5022873;28;20037;-62
2022/07/09 05:01:29;;;;;;;1.75;1.30;;;22.80;61.50;;;;;;5028391;28;20038;-63
2022/07/09 05:03:55;;;;;;;1.65;1.33;;;22.80;61.50;;;;;;5028817;28;20408;-63
2022/07/09 05:06:21;;;;;;;1.38;1.20;;;22.80;61.50;;;;;;5028720;28;20029;-62
2022/07/09 05:08:50;;;;;;;1.98;1.33;;;22.80;61.50;;;;;;5026305;28;20052;-63
2022/07/09 05:11:15;;;;;;;1.52;1.40;;;22.80;61.50;;;;;;5009456;28;20749;-62
2022/07/09 05:13:41;;;;;;;2.53;1.50;;;22.80;61.50;;;;;;5026661;28;20049;-62
2022/07/09 05:16:08;;;;;;;2.65;1.33;;;22.80;61.50;;;;;;5026580;28;20037;-61
2022/07/09 05:18:34;;;;;;;1.30;1.10;;;22.80;61.50;;;;;;5029865;28;20037;-62
2022/07/09 05:21:00;;;;;;;2.85;1.60;;;22.80;61.50;;;;;;5028193;28;20087;-63
2022/07/09 05:23:26;;;;;;;3.03;1.20;;;22.80;61.50;;;;;;5025016;28;20654;-63
2022/07/09 05:25:51;;;;;;;1.63;1.30;;;22.80;61.50;;;;;;5028488;28;20127;-62
2022/07/09 05:28:17;;;;;;;2.08;1.40;;;22.80;61.60;;;;;;5003262;28;20098;-62
2022/07/09 05:30:43;;;;;;;2.20;1.27;;;22.80;61.50;;;;;;5028379;28;20041;-62
2022/07/09 05:33:09;;;;;;;2.13;1.30;;;22.80;61.50;;;;;;5009914;28;20114;-63
2022/07/09 05:35:34;;;;;;;2.90;1.30;;;22.80;61.50;;;;;;5029069;28;20045;-63
2022/07/09 05:38:00;;;;;;;1.80;1.30;;;22.80;62.30;;;;;;5009028;28;20500;-62
2022/07/09 05:40:26;;;;;;;1.55;1.38;;;22.80;61.60;;;;;;5011251;28;20494;-62
2022/07/09 05:42:51;;;;;;;1.67;1.20;;;22.80;61.60;;;;;;5028189;28;20049;-62
2022/07/09 05:45:17;;;;;;;1.40;1.10;;;22.80;61.60;;;;;;5025837;28;20029;-62
2022/07/09 05:47:43;;;;;;;2.22;1.20;;;22.80;61.60;;;;;;5027823;28;20120;-63
2022/07/09 05:50:09;;;;;;;1.80;1.23;;;22.80;61.60;;;;;;5009438;28;20060;-62
2022/07/09 05:52:34;;;;;;;2.08;1.30;;;22.80;61.60;;;;;;5028519;28;20128;-62
2022/07/09 05:55:00;;;;;;;1.75;1.27;;;22.80;61.70;;;;;;5031393;28;20068;-62
2022/07/09 05:57:26;;;;;;;1.15;1.05;;;22.80;61.70;;;;;;5032453;28;20064;-64
2022/07/09 05:59:51;;;;;;;1.67;1.58;;;22.80;61.60;;;;;;5027650;28;20045;-64
2022/07/09 06:02:19;;;;;;;1.20;1.10;;;22.80;61.70;;;;;;5011675;28;20045;-63
2022/07/09 06:04:45;;;;;;;1.27;1.17;;;22.70;61.60;;;;;;5032247;28;20040;-63
2022/07/09 06:07:10;;;;;;;2.03;1.30;;;22.80;61.70;;;;;;5032025;28;20452;-63
2022/07/09 06:09:36;;;;;;;1.67;1.55;;;22.70;61.70;;;;;;5013711;28;20529;-62
2022/07/09 06:12:02;;;;;;;1.25;1.15;;;22.80;61.80;;;;;;5029525;28;20547;-62
2022/07/09 06:14:28;;;;;;;2.35;1.20;;;22.70;61.60;;;;;;5010076;28;20033;-63
2022/07/09 06:16:55;;;;;;;1.67;1.10;;;22.80;61.80;;;;;;5030787;28;20073;-63
2022/07/09 06:19:21;;;;;;;1.45;1.02;;;22.80;62.00;;;;;;5012404;28;20056;-64
2022/07/09 06:21:47;;;;;;;2.38;1.20;;;22.80;62.20;;;;;;5013606;28;20041;-64
2022/07/09 06:24:12;;;;;;;2.75;1.20;;;22.80;62.20;;;;;;5011149;28;20091;-63
2022/07/09 06:26:38;;;;;;;3.65;1.27;;;22.80;62.60;;;;;;5020368;28;20287;-62
2022/07/09 06:29:03;;;;;;;6.22;1.42;;;22.80;63.10;;;;;;5024852;28;20048;-65
2022/07/09 06:31:29;;;;;;;3.60;1.50;;;22.80;63.30;;;;;;5026081;28;20041;-64
2022/07/09 06:33:56;;;;;;;3.45;1.30;;;22.80;63.40;;;;;;5025446;28;20041;-63
2022/07/09 06:36:22;;;;;;;2.15;1.20;;;22.80;63.60;;;;;;5025568;28;20382;-64
2022/07/09 06:41:32;;;;;;;1.40;1.15;;;22.90;64.00;;;;;;5028733;28;20033;-63
2022/07/09 06:43:58;;;;;;;1.30;1.20;;;22.90;64.00;;;;;;5024896;28;20452;-63
2022/07/09 06:46:24;;;;;;;2.35;1.30;;;22.90;64.10;;;;;;5027916;28;20045;-64
2022/07/09 06:48:50;;;;;;;1.73;1.20;;;22.90;64.20;;;;;;5030211;28;20136;-63
2022/07/09 06:51:16;;;;;;;4.70;1.50;;;22.90;64.40;;;;;;5027578;28;20059;-63
2022/07/09 06:53:42;;;;;;;3.72;1.40;;;22.90;64.40;;;;;;5026751;28;20545;-63
2022/07/09 06:56:07;;;;;;;3.35;1.73;;;22.90;64.30;;;;;;5027168;28;20036;-65
2022/07/09 06:58:33;;;;;;;3.15;1.77;;;22.90;64.40;;;;;;5005704;28;20741;-64
2022/07/09 07:00:59;;;;;;;5.35;1.60;;;22.90;64.50;;;;;;5023204;28;20643;-68
2022/07/09 07:03:24;;;;;;;3.90;1.50;;;22.90;64.50;;;;;;4991417;28;20044;-64
2022/07/09 07:05:50;;;;;;;3.22;1.30;;;22.90;64.50;;;;;;4990189;28;20045;-62
2022/07/09 07:08:18;;;;;;;3.95;1.30;;;22.90;64.60;;;;;;5006779;28;20051;-63
2022/07/09 07:10:45;;;;;;;5.63;2.15;;;22.90;64.60;;;;;;5010558;28;20781;-64
2022/07/09 07:13:11;;;;;;;2.88;1.40;;;22.90;64.70;;;;;;4981971;28;20648;-63
2022/07/09 07:15:38;;;;;;;2.90;1.20;;;22.90;64.70;;;;;;4991628;28;20127;-63
2022/07/09 07:18:07;;;;;;;3.97;1.50;;;22.90;64.70;;;;;;4993286;28;20084;-63
2022/07/09 07:20:37;;;;;;;6.68;1.55;;;22.90;64.60;;;;;;4984838;28;20124;-65
2022/07/09 07:23:03;;;;;;;6.43;1.30;;;23.00;64.60;;;;;;4994520;28;20041;-63
2022/07/09 07:25:29;;;;;;;3.97;1.40;;;23.00;64.60;;;;;;4994703;28;20041;-63
2022/07/09 07:27:55;;;;;;;3.78;1.50;;;23.00;64.50;;;;;;5024804;28;20405;-63
2022/07/09 07:30:20;;;;;;;3.95;1.48;;;23.00;64.70;;;;;;5021785;28;20044;-62
2022/07/09 07:32:46;;;;;;;2.28;1.20;;;22.90;64.90;;;;;;5023542;28;20156;-61
2022/07/09 07:35:12;;;;;;;4.40;1.50;;;23.00;65.10;;;;;;5024393;28;20609;-61
2022/07/09 07:37:37;;;;;;;5.25;1.60;;;23.00;65.20;;;;;;5024481;28;20573;-61
2022/07/09 07:40:04;;;;;;;4.70;1.40;;;22.90;65.30;;;;;;5026255;28;20037;-65
2022/07/09 07:42:29;;;;;;;2.78;1.27;;;23.00;65.30;;;;;;5025854;28;20038;-61
2022/07/09 07:44:56;;;;;;;3.90;1.40;;;23.00;65.20;;;;;;5024193;28;20041;-62
2022/07/09 07:47:22;;;;;;;3.95;1.30;;;23.00;65.20;;;;;;5028101;28;20454;-66
2022/07/09 07:49:47;;;;;;;2.53;1.00;;;23.00;65.00;;;;;;4981872;28;20045;-63
2022/07/09 07:52:13;;;;;;;3.00;1.15;;;23.00;65.00;;;;;;5027517;28;20055;-64
2022/07/09 07:54:38;;;;;;;1.75;1.10;;;23.00;65.00;;;;;;5028027;28;20049;-63
2022/07/09 07:57:04;;;;;;;1.70;1.30;;;23.00;65.00;;;;;;5027061;28;20099;-63
2022/07/09 07:59:30;;;;;;;1.25;1.10;;;23.00;65.00;;;;;;5001567;28;20045;-63
2022/07/09 08:01:56;;;;;;;1.75;1.02;;;23.00;64.90;;;;;;5026905;28;20068;-63
2022/07/09 08:04:21;;;;;;;2.47;1.20;;;23.00;64.90;;;;;;5028228;28;20033;-63
2022/07/09 08:06:47;;;;;;;1.23;1.00;;;23.00;65.00;;;;;;5027889;28;20914;-64
2022/07/09 08:09:13;;;;;;;2.60;1.20;;;23.00;64.90;;;;;;5029985;28;20507;-63
2022/07/09 08:11:38;;;;;;;3.58;1.08;;;23.00;64.80;;;;;;5028668;28;20037;-63
2022/07/09 08:14:06;;;;;;;1.45;1.17;;;23.00;64.80;;;;;;5025213;28;20037;-63
2022/07/09 08:16:32;;;;;;;2.03;1.20;;;23.00;64.70;;;;;;5025386;28;20049;-63
2022/07/09 08:18:58;;;;;;;2.53;1.30;;;23.00;64.80;;;;;;5008710;28;20386;-63
2022/07/09 08:21:23;;;;;;;3.55;1.10;;;23.00;64.50;;;;;;5029766;28;20033;-63
2022/07/09 08:23:53;;;;;;;3.13;1.27;;;23.00;64.70;;;;;;5030075;28;20037;-64
2022/07/09 08:26:20;;;;;;;5.03;1.53;;;23.00;64.70;;;;;;5030455;28;20059;-63
2022/07/09 08:28:46;;;;;;;3.67;1.23;;;23.00;64.90;;;;;;5031582;28;20041;-63
2022/07/09 08:31:11;;;;;;;3.35;1.25;;;23.10;65.00;;;;;;4991299;28;20056;-64
2022/07/09 08:33:38;;;;;;;2.20;1.17;;;23.10;64.80;;;;;;5009171;28;20514;-63
2022/07/09 08:36:04;;;;;;;2.10;1.05;;;23.20;64.90;;;;;;5028065;28;20405;-65
2022/07/09 08:38:31;;;;;;;1.60;0.98;;;23.20;65.00;;;;;;5014920;28;20044;-64
2022/07/09 08:40:59;;;;;;;4.25;1.27;;;23.30;65.00;;;;;;5029637;28;20041;-63
2022/07/09 08:43:27;;;;;;;3.35;0.95;;;23.20;65.30;;;;;;5029657;28;20044;-64
2022/07/09 08:45:55;;;;;;;2.53;1.02;;;23.30;65.50;;;;;;5025409;28;20054;-64
2022/07/09 08:48:21;;;;;;;3.33;1.15;;;23.20;65.40;;;;;;5028047;28;20045;-63
2022/07/09 08:50:48;;;;;;;3.83;1.40;;;23.20;65.00;;;;;;5028304;28;20507;-63
2022/07/09 08:53:17;;;;;;;3.75;1.98;;;23.20;64.80;;;;;;5027546;28;20041;-63
2022/07/09 08:55:44;;;;;;;2.75;1.55;;;23.20;64.30;;;;;;5007675;28;20040;-65
2022/07/09 08:58:12;;;;;;;2.05;1.50;;;23.10;64.20;;;;;;5028828;28;20069;-63
2022/07/09 09:00:40;;;;;;;3.88;1.95;;;23.10;64.60;;;;;;5008525;28;20042;-63
2022/07/09 09:03:06;;;;;;;3.63;1.67;;;23.10;64.50;;;;;;5010301;28;20049;-63
2022/07/09 09:05:32;;;;;;;4.00;1.52;;;23.00;64.60;;;;;;5008638;28;20048;-64
2022/07/09 09:07:58;;;;;;;3.53;1.38;;;23.00;64.60;;;;;;5028942;28;20405;-65
2022/07/09 09:10:26;;;;;;;4.35;1.77;;;23.00;64.80;;;;;;5008048;28;20064;-64
2022/07/09 09:13:01;;;;;;;3.33;1.55;;;23.00;65.10;;;;;;5029253;28;20099;-63
2022/07/09 09:15:28;;;;;;;4.15;1.92;;;23.00;66.00;;;;;;5005959;28;20062;-63
2022/07/09 09:17:54;;;;;;;15.63;1.98;;;23.00;66.30;;;;;;5028306;28;20133;-65
2022/07/09 09:20:20;;;;;;;4.85;1.70;;;23.10;66.10;;;;;;5028742;28;20041;-64
2022/07/09 09:23:04;;;;;;;2.85;1.40;;;23.10;66.20;;;;;;5030818;28;20044;-64
2022/07/09 09:25:30;;;;;;;4.28;1.40;;;23.10;66.00;;;;;;5032723;28;20108;-63
2022/07/09 09:27:59;;;;;;;3.30;1.50;;;23.10;65.70;;;;;;5030833;28;20135;-64
2022/07/09 09:30:29;;;;;;;5.70;1.52;;;23.10;65.40;;;;;;5001630;28;20240;-63
2022/07/09 09:33:02;;;;;;;3.77;1.57;;;23.10;65.00;;;;;;5028516;28;20563;-64
2022/07/09 09:35:42;;;;;;;5.90;1.83;;;23.10;65.10;;;;;;5029384;28;20259;-65
2022/07/09 09:38:08;;;;;;;3.95;1.50;;;23.10;65.10;;;;;;5028853;28;20518;-64
2022/07/09 09:40:35;;;;;;;6.43;1.25;;;23.10;64.90;;;;;;5012353;28;20098;-64
2022/07/09 09:43:03;;;;;;;1.77;1.50;;;23.10;64.90;;;;;;5035080;28;20301;-64
2022/07/09 09:45:28;;;;;;;3.90;1.20;;;23.10;64.60;;;;;;5028000;28;20544;-64
2022/07/09 09:47:54;;;;;;;2.97;1.02;;;23.10;64.60;;;;;;5032854;28;20120;-63
2022/07/09 09:50:22;;;;;;;2.25;1.15;;;23.10;64.90;;;;;;5031827;28;20045;-64
2022/07/09 09:52:50;;;;;;;2.47;1.30;;;23.10;65.00;;;;;;5015099;28;20091;-64
2022/07/09 09:55:17;;;;;;;2.90;1.30;;;23.10;64.90;;;;;;4995962;28;20080;-63
2022/07/09 09:57:44;;;;;;;4.38;1.67;;;23.10;64.90;;;;;;5029271;28;20136;-63
2022/07/09 10:00:12;;;;;;;3.45;1.52;;;23.10;64.80;;;;;;5026662;28;20087;-64
2022/07/09 10:02:43;;;;;;;3.15;1.23;;;23.10;64.60;;;;;;5030010;28;20037;-65
2022/07/09 10:05:09;;;;;;;6.90;1.60;;;23.10;64.30;;;;;;5030370;28;20053;-63
2022/07/09 10:07:35;;;;;;;3.90;1.33;;;23.10;63.10;;;;;;5015133;28;20037;-63
2022/07/09 10:10:01;;;;;;;5.05;1.20;;;23.10;62.80;;;;;;5014006;28;20042;-63
2022/07/09 10:12:32;;;;;;;2.97;1.20;;;23.10;62.20;;;;;;5010708;28;20026;-63
2022/07/09 10:14:58;;;;;;;2.55;1.00;;;23.00;61.30;;;;;;5028604;28;20954;-63
2022/07/09 10:17:25;;;;;;;3.90;1.13;;;23.00;61.60;;;;;;5030372;28;20052;-63
2022/07/09 10:20:04;;;;;;;1.17;0.90;;;22.90;61.30;;;;;;5031096;28;20041;-63
2022/07/09 10:22:40;;;;;;;3.42;1.48;;;22.90;61.30;;;;;;5015715;28;20060;-63
2022/07/09 10:25:11;;;;;;;4.43;1.13;;;22.90;61.10;;;;;;5031712;28;20037;-65
2022/07/09 10:27:47;;;;;;;3.67;0.95;;;22.90;60.90;;;;;;5029893;28;20650;-63
2022/07/09 10:30:24;;;;;;;5.47;1.20;;;22.90;60.50;;;;;;5024327;28;20104;-64
2022/07/09 10:33:07;;;;;;;2.22;1.27;;;22.90;60.20;;;;;;5027025;28;20073;-63
2022/07/09 10:35:44;;;;;;;2.22;0.82;;;22.80;60.20;;;;;;5010929;28;20136;-65
2022/07/09 10:38:10;;;;;;;3.15;1.02;;;22.80;60.30;;;;;;5030555;28;20036;-64
2022/07/09 10:40:44;;;;;;;3.55;1.00;;;22.80;60.00;;;;;;5031817;28;20045;-63
2022/07/09 10:43:11;;;;;;;2.50;0.93;;;22.80;60.00;;;;;;5029520;28;20109;-63
2022/07/09 10:45:44;;;;;;;3.83;1.25;;;22.80;60.10;;;;;;5031979;28;20086;-63
2022/07/09 10:48:11;;;;;;;6.00;1.20;;;22.80;60.20;;;;;;5028778;28;20106;-63
2022/07/09 10:50:42;;;;;;;6.07;1.42;;;22.80;60.10;;;;;;5015371;28;20449;-64
2022/07/09 10:53:08;;;;;;;5.03;0.98;;;22.80;59.50;;;;;;5016433;28;20041;-64
2022/07/09 10:55:34;;;;;;;3.38;0.93;;;22.80;59.10;;;;;;5029119;28;20045;-64
2022/07/09 10:58:02;;;;;;;4.32;1.15;;;22.80;59.10;;;;;;5030317;28;20042;-63
2022/07/09 11:00:30;;;;;;;1.85;0.90;;;22.80;59.00;;;;;;5028471;28;20042;-65
2022/07/09 11:03:02;;;;;;;1.73;0.88;;;22.80;58.90;;;;;;5029214;28;20405;-64
2022/07/09 11:05:28;;;;;;;2.53;0.98;;;22.80;59.00;;;;;;5029863;28;20036;-63
2022/07/09 11:07:58;;;;;;;3.05;1.10;;;22.70;58.70;;;;;;5012540;28;20041;-64
2022/07/09 11:10:25;;;;;;;2.40;0.98;;;22.70;58.70;;;;;;5032313;28;20052;-64
2022/07/09 11:12:51;;;;;;;3.85;1.35;;;22.70;58.20;;;;;;5032172;28;20073;-63
2022/07/09 11:15:18;;;;;;;3.58;1.00;;;22.70;58.20;;;;;;5030103;28;20604;-64
2022/07/09 11:17:43;;;;;;;1.33;1.05;;;22.70;58.50;;;;;;5008069;28;20056;-65
2022/07/09 11:20:12;;;;;;;3.50;1.00;;;22.70;58.70;;;;;;5014092;28;20976;-64
2022/07/09 11:22:38;;;;;;;2.58;1.10;;;22.70;58.50;;;;;;5011488;28;20047;-65
2022/07/09 11:25:04;;;;;;;2.17;0.88;;;22.70;58.60;;;;;;5030547;28;20651;-65
2022/07/09 11:27:29;;;;;;;1.50;0.80;;;22.70;58.60;;;;;;5030117;28;20486;-66
2022/07/09 11:30:00;;;;;;;1.35;0.90;;;22.70;58.70;;;;;;5027335;28;20037;-65
2022/07/09 11:32:26;;;;;;;2.75;0.80;;;22.80;58.60;;;;;;5027253;28;20124;-65
2022/07/09 11:34:54;;;;;;;1.63;0.80;;;22.80;58.70;;;;;;5013733;28;20211;-65
2022/07/09 11:37:27;;;;;;;3.45;1.20;;;22.80;58.70;;;;;;5030152;28;20048;-65
2022/07/09 11:39:55;;;;;;;2.97;0.82;;;22.80;58.50;;;;;;5030009;28;20041;-65
2022/07/09 11:42:21;;;;;;;1.02;0.80;;;22.80;58.50;;;;;;5029473;28;20045;-65
2022/07/09 11:44:55;;;;;;;2.05;0.95;;;22.90;58.70;;;;;;5011169;28;20064;-65
2022/07/09 11:47:32;;;;;;;2.92;1.20;;;22.90;58.50;;;;;;5011299;28;20072;-65
2022/07/09 11:50:08;;;;;;;0.93;0.73;;;22.90;57.90;;;;;;5032365;28;20100;-66
2022/07/09 11:52:34;;;;;;;1.23;0.75;;;22.90;58.00;;;;;;5030358;28;20041;-65
2022/07/09 11:55:00;;;;;;;2.10;1.00;;;22.90;58.20;;;;;;5012085;28;20037;-65
2022/07/09 11:57:26;;;;;;;3.25;1.00;;;22.90;58.30;;;;;;5011399;28;20049;-66
2022/07/09 11:59:53;;;;;;;1.75;0.88;;;22.90;58.30;;;;;;5013155;28;20077;-65
2022/07/09 12:02:29;;;;;;;2.20;0.98;;;22.90;58.40;;;;;;5029592;28;20037;-65
2022/07/09 12:04:56;;;;;;;2.88;1.00;;;22.90;58.40;;;;;;5009118;28;20045;-66
2022/07/09 12:07:21;;;;;;;3.95;1.10;;;22.90;58.40;;;;;;5028272;28;20111;-66
2022/07/09 12:10:02;;;;;;;4.90;1.00;;;22.90;58.50;;;;;;5030914;28;20475;-66
2022/07/09 12:12:28;;;;;;;1.75;0.90;;;22.90;58.50;;;;;;5028413;28;20037;-66
2022/07/09 12:14:57;;;;;;;3.85;1.40;;;22.90;58.60;;;;;;5014314;28;21743;-66
2022/07/09 12:17:24;;;;;;;5.95;1.35;;;22.90;58.90;;;;;;5024608;28;20045;-65
2022/07/09 12:19:53;;;;;;;5.95;1.50;;;22.90;59.50;;;;;;5027961;28;20047;-63
2022/07/09 12:22:20;;;;;;;7.78;1.63;;;23.00;60.50;;;;;;5026845;28;20172;-63
2022/07/09 12:24:47;;;;;;;5.72;1.70;;;23.00;61.20;;;;;;5028974;28;20033;-64
2022/07/09 12:27:13;;;;;;;5.22;1.65;;;23.00;61.60;;;;;;5028985;28;20028;-64
2022/07/09 12:29:38;;;;;;;5.82;1.52;;;23.10;61.80;;;;;;5010872;28;20690;-65
2022/07/09 12:32:04;;;;;;;5.03;1.60;;;23.10;61.80;;;;;;5024343;28;20041;-65
2022/07/09 12:34:31;;;;;;;4.65;1.30;;;23.20;62.00;;;;;;5027927;28;20045;-64
2022/07/09 12:36:56;;;;;;;7.25;1.77;;;23.20;62.00;;;;;;5027743;28;20041;-64
2022/07/09 12:39:22;;;;;;;9.30;2.20;;;23.20;62.10;;;;;;5027251;28;20048;-64
2022/07/09 12:41:48;;;;;;;5.22;1.83;;;23.20;62.30;;;;;;5008484;28;20068;-63
2022/07/09 12:44:13;;;;;;;6.65;1.52;;;23.20;62.50;;;;;;5011532;28;20540;-63
2022/07/09 12:46:39;;;;;;;3.17;1.55;;;23.20;62.60;;;;;;4984589;28;20057;-64
2022/07/09 12:49:05;;;;;;;5.55;1.55;;;23.20;62.50;;;;;;4992023;28;20041;-64